createdAt,value
2018-06-25T00:01:24.996Z,101314.66
2018-06-25T00:03:53.394Z,101310.69
2018-06-25T00:06:21.730Z,101305.52
2018-06-25T00:08:50.106Z,101310.67
2018-06-25T00:11:18.441Z,101309.23
2018-06-25T00:13:46.787Z,101306.67
2018-06-25T00:16:15.122Z,101301.89
2018-06-25T00:18:44.490Z,101301.27
2018-06-25T00:21:13.893Z,101303.17
2018-06-25T00:23:43.006Z,101304.36
2018-06-25T00:26:12.001Z,101314.37
2018-06-25T00:28:40.324Z,101310.86
2018-06-25T00:31:08.658Z,101308.48
2018-06-25T00:33:36.997Z,101308.11
2018-06-25T00:36:05.356Z,101306.29
2018-06-25T00:38:33.707Z,101305.81
2018-06-25T00:41:02.050Z,101302.22
2018-06-25T00:43:30.385Z,101299.42
2018-06-25T00:45:59.773Z,101298.91
2018-06-25T00:48:28.108Z,101298.99
2018-06-25T00:50:56.454Z,101298.06
2018-06-25T00:53:24.811Z,101295.27
2018-06-25T00:55:53.265Z,101295.34
2018-06-25T00:58:21.618Z,101296.00
2018-06-25T01:00:49.953Z,101293.31
2018-06-25T01:03:18.278Z,101293.36
2018-06-25T01:05:47.613Z,101287.59
2018-06-25T01:08:16.829Z,101293.05
2018-06-25T01:10:45.157Z,101296.52
2018-06-25T01:13:14.645Z,101302.42
2018-06-25T01:15:44.970Z,101302.88
2018-06-25T01:18:14.282Z,101307.09
2018-06-25T01:20:43.657Z,101307.73
2018-06-25T01:23:13.109Z,101307.27
2018-06-25T01:25:42.664Z,101316.33
2018-06-25T01:28:11.002Z,101317.63
2018-06-25T01:30:40.422Z,101315.95
2018-06-25T01:33:08.757Z,101303.67
2018-06-25T01:35:37.073Z,101297.32
2018-06-25T01:38:05.483Z,101294.34
2018-06-25T01:40:33.815Z,101297.91
2018-06-25T01:43:02.228Z,101299.39
2018-06-25T01:45:30.606Z,101298.21
2018-06-25T01:47:58.981Z,101295.12
2018-06-25T01:50:27.696Z,101296.45
2018-06-25T01:52:56.065Z,101299.92
2018-06-25T01:55:24.393Z,101305.93
2018-06-25T01:57:53.610Z,101304.17
2018-06-25T02:00:21.942Z,101299.89
2018-06-25T02:02:50.275Z,101307.64
2018-06-25T02:05:18.634Z,101304.92
2018-06-25T02:07:46.972Z,101305.91
2018-06-25T02:10:16.043Z,101309.52
2018-06-25T02:12:46.445Z,101308.44
2018-06-25T02:15:15.321Z,101314.33
2018-06-25T02:17:44.545Z,101313.58
2018-06-25T02:20:13.748Z,101317.77
2018-06-25T02:22:42.913Z,101312.52
2018-06-25T02:25:12.273Z,101311.29
2018-06-25T02:27:42.041Z,101318.70
2018-06-25T02:30:10.377Z,101322.64
2018-06-25T02:32:38.703Z,101323.66
2018-06-25T02:35:07.030Z,101320.89
2018-06-25T02:37:35.358Z,101317.17
2018-06-25T02:40:04.609Z,101320.48
2018-06-25T02:42:33.849Z,101322.13
2018-06-25T02:45:03.193Z,101327.72
2018-06-25T02:47:32.417Z,101322.25
2018-06-25T02:50:01.561Z,101324.41
2018-06-25T02:52:30.717Z,101323.31
2018-06-25T02:54:59.112Z,101318.66
2018-06-25T02:57:27.434Z,101315.81
2018-06-25T02:59:56.641Z,101321.06
2018-06-25T03:02:25.850Z,101325.94
2018-06-25T03:04:55.249Z,101325.84
2018-06-25T03:07:24.574Z,101321.57
2018-06-25T03:09:53.563Z,101323.82
2018-06-25T03:12:22.785Z,101324.80
2018-06-25T03:14:52.065Z,101320.39
2018-06-25T03:17:21.270Z,101324.92
2018-06-25T03:19:50.453Z,101324.00
2018-06-25T03:22:18.785Z,101328.52
2018-06-25T03:24:48.126Z,101326.96
2018-06-25T03:27:17.380Z,101326.95
2018-06-25T03:29:45.721Z,101332.46
2018-06-25T03:32:14.993Z,101332.13
2018-06-25T03:34:45.166Z,101344.03
2018-06-25T03:37:15.790Z,101342.04
2018-06-25T03:39:46.008Z,101352.30
2018-06-25T03:42:15.589Z,101352.37
2018-06-25T03:44:44.919Z,101353.22
2018-06-25T03:47:14.345Z,101346.78
2018-06-25T03:49:44.435Z,101356.13
2018-06-25T03:52:13.887Z,101353.94
2018-06-25T03:54:44.233Z,101361.98
2018-06-25T03:57:14.552Z,101365.55
2018-06-25T03:59:43.842Z,101367.05
2018-06-25T04:02:13.532Z,101369.81
2018-06-25T04:04:43.937Z,101370.06
2018-06-25T04:07:14.686Z,101377.94
2018-06-25T04:09:43.945Z,101375.06
2018-06-25T04:12:14.081Z,101381.52
2018-06-25T04:14:43.126Z,101388.70
2018-06-25T04:17:12.121Z,101392.94
2018-06-25T04:19:40.491Z,101392.95
2018-06-25T04:22:08.831Z,101395.19
2018-06-25T04:24:37.197Z,101397.25
2018-06-25T04:27:05.525Z,101398.41
2018-06-25T04:29:33.910Z,101410.80
2018-06-25T04:32:03.274Z,101410.84
2018-06-25T04:34:32.541Z,101401.26
2018-06-25T04:37:00.906Z,101409.58
2018-06-25T04:39:30.281Z,101410.08
2018-06-25T04:41:58.623Z,101408.51
2018-06-25T04:44:27.835Z,101400.39
2018-06-25T04:46:56.214Z,101403.41
2018-06-25T04:49:25.588Z,101401.48
2018-06-25T04:51:53.917Z,101403.03
2018-06-25T04:54:22.289Z,101404.23
2018-06-25T04:56:50.631Z,101413.71
2018-06-25T04:59:18.974Z,101409.87
2018-06-25T05:01:47.302Z,101427.56
2018-06-25T05:04:15.643Z,101426.95
2018-06-25T05:06:44.597Z,101428.17
2018-06-25T05:09:13.845Z,101427.48
2018-06-25T05:11:42.939Z,101422.10
2018-06-25T05:14:13.372Z,101423.98
2018-06-25T05:16:42.115Z,101425.09
2018-06-25T05:19:10.492Z,101428.67
2018-06-25T05:21:39.045Z,101436.31
2018-06-25T05:24:07.386Z,101436.22
2018-06-25T05:26:35.722Z,101435.87
2018-06-25T05:29:04.116Z,101434.66
2018-06-25T05:31:33.898Z,101441.11
2018-06-25T05:34:02.245Z,101447.94
2018-06-25T05:36:30.585Z,101457.86
2018-06-25T05:38:58.944Z,101460.37
2018-06-25T05:41:27.406Z,101457.39
2018-06-25T05:43:55.737Z,101458.18
2018-06-25T05:46:25.121Z,101458.67
2018-06-25T05:48:53.595Z,101457.37
2018-06-25T05:51:23.018Z,101459.17
2018-06-25T05:53:51.345Z,101453.44
2018-06-25T05:56:19.709Z,101453.92
2018-06-25T05:58:48.929Z,101451.89
2018-06-25T06:01:18.252Z,101449.39
2018-06-25T06:03:46.578Z,101451.66
2018-06-25T06:06:15.625Z,101446.88
2018-06-25T06:08:44.990Z,101452.27
2018-06-25T06:11:14.739Z,101453.50
2018-06-25T06:13:44.019Z,101457.92
2018-06-25T06:16:13.983Z,101457.45
2018-06-25T06:18:44.018Z,101456.36
2018-06-25T06:21:14.428Z,101459.19
2018-06-25T06:23:43.005Z,101460.63
2018-06-25T06:26:12.414Z,101460.87
2018-06-25T06:28:40.753Z,101463.51
2018-06-25T06:31:09.215Z,101466.40
2018-06-25T06:33:38.408Z,101466.27
2018-06-25T06:36:06.757Z,101464.83
2018-06-25T06:38:35.093Z,101463.28
2018-06-25T06:41:03.505Z,101475.03
2018-06-25T06:43:31.867Z,101470.84
2018-06-25T06:46:00.193Z,101459.70
2018-06-25T06:48:29.314Z,101459.86
2018-06-25T06:50:58.590Z,101456.67
2018-06-25T06:53:26.926Z,101461.27
2018-06-25T06:55:55.279Z,101466.30
2018-06-25T06:58:23.622Z,101464.97
2018-06-25T07:00:52.002Z,101463.13
2018-06-25T07:03:20.347Z,101465.34
2018-06-25T07:05:48.824Z,101464.92
2018-06-25T07:08:17.161Z,101465.62
2018-06-25T07:10:45.489Z,101455.19
2018-06-25T07:13:15.126Z,101458.41
2018-06-25T07:15:44.426Z,101457.16
2018-06-25T07:18:13.149Z,101451.78
2018-06-25T07:20:42.374Z,101453.91
2018-06-25T07:23:10.725Z,101459.33
2018-06-25T07:25:39.085Z,101450.36
2018-06-25T07:28:07.417Z,101451.62
2018-06-25T07:30:35.749Z,101454.92
2018-06-25T07:33:04.082Z,101454.95
2018-06-25T07:35:32.430Z,101461.74
2018-06-25T07:38:00.819Z,101463.43
2018-06-25T07:40:29.149Z,101464.76
2018-06-25T07:42:57.514Z,101466.66
2018-06-25T07:45:25.841Z,101471.97
2018-06-25T07:47:54.297Z,101474.54
2018-06-25T07:50:22.622Z,101471.33
2018-06-25T07:52:50.973Z,101471.03
2018-06-25T07:55:19.299Z,101474.42
2018-06-25T07:57:48.469Z,101480.44
2018-06-25T08:00:16.854Z,101476.91
2018-06-25T08:02:45.188Z,101484.06
2018-06-25T08:05:14.674Z,101479.44
2018-06-25T08:07:44.022Z,101481.12
2018-06-25T08:10:14.062Z,101474.73
2018-06-25T08:12:44.577Z,101483.44
2018-06-25T08:15:13.993Z,101482.97
2018-06-25T08:17:43.902Z,101480.50
2018-06-25T08:20:13.959Z,101477.23
2018-06-25T08:22:43.355Z,101481.53
2018-06-25T08:25:12.225Z,101480.45
2018-06-25T08:27:40.593Z,101492.36
2018-06-25T08:30:09.003Z,101500.47
2018-06-25T08:32:37.317Z,101498.00
2018-06-25T08:35:05.662Z,101502.56
2018-06-25T08:37:33.989Z,101509.05
2018-06-25T08:40:02.462Z,101508.63
2018-06-25T08:42:30.825Z,101511.13
2018-06-25T08:44:59.201Z,101515.09
2018-06-25T08:47:28.562Z,101519.38
2018-06-25T08:49:57.876Z,101522.22
2018-06-25T08:52:27.140Z,101523.34
2018-06-25T08:54:55.482Z,101526.41
2018-06-25T08:57:23.809Z,101526.24
2018-06-25T08:59:52.153Z,101520.00
2018-06-25T09:02:20.521Z,101531.89
2018-06-25T09:04:48.858Z,101524.81
2018-06-25T09:07:18.062Z,101537.35
2018-06-25T09:09:46.481Z,101533.05
2018-06-25T09:12:14.952Z,101535.39
2018-06-25T09:14:44.388Z,101534.89
2018-06-25T09:17:13.171Z,101537.16
2018-06-25T09:19:43.229Z,101540.66
2018-06-25T09:22:12.621Z,101542.91
2018-06-25T09:24:40.970Z,101538.14
2018-06-25T09:27:09.317Z,101536.66
2018-06-25T09:29:37.737Z,101543.22
2018-06-25T09:32:06.096Z,101544.33
2018-06-25T09:34:39.697Z,101551.75
2018-06-25T09:37:08.037Z,101553.70
2018-06-25T09:39:36.366Z,101537.34
2018-06-25T09:42:04.720Z,101541.97
2018-06-25T09:44:33.045Z,101540.08
2018-06-25T09:47:01.641Z,101546.70
2018-06-25T09:49:29.962Z,101543.03
2018-06-25T09:51:58.289Z,101550.46
2018-06-25T09:54:27.060Z,101558.48
2018-06-25T09:56:55.429Z,101560.59
2018-06-25T09:59:23.761Z,101558.22
2018-06-25T10:01:52.305Z,101560.08
2018-06-25T10:04:21.321Z,101554.23
2018-06-25T10:06:50.042Z,101547.84
2018-06-25T10:09:18.373Z,101545.32
2018-06-25T10:11:46.733Z,101547.02
2018-06-25T10:14:15.058Z,101542.19
2018-06-25T10:16:44.438Z,101551.30
2018-06-25T10:19:13.237Z,101545.11
2018-06-25T10:21:42.311Z,101551.43
2018-06-25T10:24:10.702Z,101555.97
2018-06-25T10:26:39.045Z,101553.42
2018-06-25T10:29:07.414Z,101554.23
2018-06-25T10:31:35.804Z,101549.47
2018-06-25T10:34:04.130Z,101549.55
2018-06-25T10:36:32.452Z,101555.44
2018-06-25T10:39:00.822Z,101558.55
2018-06-25T10:41:29.154Z,101547.09
2018-06-25T10:43:57.529Z,101548.52
2018-06-25T10:46:25.905Z,101549.70
2018-06-25T10:48:54.250Z,101543.44
2018-06-25T10:51:22.597Z,101555.47
2018-06-25T10:53:50.965Z,101548.14
2018-06-25T10:56:19.363Z,101549.92
2018-06-25T10:58:47.686Z,101557.05
2018-06-25T11:01:16.059Z,101554.61
2018-06-25T11:03:45.358Z,101549.30
2018-06-25T11:06:14.643Z,101552.00
2018-06-25T11:08:44.173Z,101552.84
2018-06-25T11:11:15.078Z,101547.33
2018-06-25T11:13:44.765Z,101540.14
2018-06-25T11:16:15.039Z,101534.16
2018-06-25T11:18:44.740Z,101538.95
2018-06-25T11:21:14.033Z,101524.98
2018-06-25T11:23:43.458Z,101528.66
2018-06-25T11:26:13.242Z,101534.48
2018-06-25T11:28:42.605Z,101540.09
2018-06-25T11:31:10.994Z,101537.93
2018-06-25T11:33:40.349Z,101529.48
2018-06-25T11:36:08.673Z,101527.50
2018-06-25T11:38:36.997Z,101529.41
2018-06-25T11:41:05.318Z,101533.06
2018-06-25T11:43:33.633Z,101530.53
2018-06-25T11:46:01.950Z,101525.73
2018-06-25T11:48:30.266Z,101524.59
2018-06-25T11:50:58.678Z,101524.19
2018-06-25T11:53:26.998Z,101518.08
2018-06-25T11:55:55.317Z,101511.75
2018-06-25T11:58:23.638Z,101515.08
2018-06-25T12:00:52.045Z,101510.08
2018-06-25T12:03:20.483Z,101500.57
2018-06-25T12:05:48.753Z,101513.88
2018-06-25T12:08:17.081Z,101502.81
2018-06-25T12:10:45.830Z,101498.05
2018-06-25T12:13:15.261Z,101498.05
2018-06-25T12:15:45.590Z,101489.77
2018-06-25T12:18:14.868Z,101487.26
2018-06-25T12:20:43.821Z,101491.42
2018-06-25T12:23:13.260Z,101483.12
2018-06-25T12:25:41.654Z,101482.56
2018-06-25T12:28:10.015Z,101486.09
2018-06-25T12:30:39.273Z,101481.13
2018-06-25T12:33:07.725Z,101478.78
2018-06-25T12:35:36.154Z,101476.12
2018-06-25T12:38:05.646Z,101468.44
2018-06-25T12:40:33.975Z,101473.47
2018-06-25T12:43:02.336Z,101465.80
2018-06-25T12:45:31.578Z,101473.28
2018-06-25T12:47:59.925Z,101469.78
2018-06-25T12:50:28.274Z,101473.42
2018-06-25T12:52:56.593Z,101471.67
2018-06-25T12:55:24.948Z,101468.09
2018-06-25T12:57:53.266Z,101467.80
2018-06-25T13:00:22.369Z,101472.43
2018-06-25T13:02:50.743Z,101472.91
2018-06-25T13:05:19.413Z,101466.27
2018-06-25T13:07:47.805Z,101467.55
2018-06-25T13:10:16.170Z,101462.05
2018-06-25T13:12:45.543Z,101465.33
2018-06-25T13:15:14.546Z,101458.70
2018-06-25T13:17:44.313Z,101446.28
2018-06-25T13:20:12.714Z,101455.28
2018-06-25T13:22:41.082Z,101454.98
2018-06-25T13:25:09.405Z,101452.94
2018-06-25T13:27:37.739Z,101449.41
2018-06-25T13:30:07.143Z,101445.25
2018-06-25T13:32:35.482Z,101438.39
2018-06-25T13:35:03.857Z,101453.09
2018-06-25T13:37:32.280Z,101443.89
2018-06-25T13:40:00.614Z,101443.34
2018-06-25T13:42:28.972Z,101442.11
2018-06-25T13:44:57.290Z,101443.66
2018-06-25T13:47:26.498Z,101443.37
2018-06-25T13:49:54.821Z,101439.67
2018-06-25T13:52:24.165Z,101428.68
2018-06-25T13:54:52.481Z,101437.86
2018-06-25T13:57:20.858Z,101443.03
2018-06-25T13:59:49.192Z,101439.91
2018-06-25T14:02:17.593Z,101443.34
2018-06-25T14:04:45.916Z,101443.23
2018-06-25T14:07:15.333Z,101445.48
2018-06-25T14:09:45.091Z,101445.42
2018-06-25T14:12:14.448Z,101451.28
2018-06-25T14:14:43.189Z,101451.49
2018-06-25T14:17:11.728Z,101447.28
2018-06-25T14:19:40.335Z,101445.11
2018-06-25T14:22:09.800Z,101449.47
2018-06-25T14:24:44.445Z,101451.12
2018-06-25T14:27:14.726Z,101444.14
2018-06-25T14:29:44.318Z,101441.23
2018-06-25T14:32:19.985Z,101431.17
2018-06-25T14:34:53.709Z,101427.51
2018-06-25T14:37:22.968Z,101435.22
2018-06-25T14:39:51.305Z,101428.15
2018-06-25T14:42:20.650Z,101429.87
2018-06-25T14:44:49.892Z,101431.81
2018-06-25T14:47:19.194Z,101428.28
2018-06-25T14:49:47.569Z,101431.66
2018-06-25T14:52:15.915Z,101438.50
2018-06-25T14:54:45.310Z,101436.91
2018-06-25T14:57:14.761Z,101440.14
2018-06-25T14:59:44.183Z,101439.33
2018-06-25T15:02:13.384Z,101429.77
2018-06-25T15:04:41.832Z,101427.64
2018-06-25T15:07:10.238Z,101422.92
2018-06-25T15:09:38.569Z,101419.55
2018-06-25T15:12:07.757Z,101424.58
2018-06-25T15:14:36.081Z,101415.73
2018-06-25T15:17:04.413Z,101410.88
2018-06-25T15:19:32.753Z,101419.73
2018-06-25T15:22:01.122Z,101416.30
2018-06-25T15:24:29.441Z,101402.16
2018-06-25T15:26:57.821Z,101409.16
2018-06-25T15:29:26.170Z,101402.77
2018-06-25T15:31:54.561Z,101408.11
2018-06-25T15:34:22.888Z,101409.97
2018-06-25T15:36:51.236Z,101404.03
2018-06-25T15:39:19.575Z,101393.88
2018-06-25T15:41:47.946Z,101385.89
2018-06-25T15:44:16.334Z,101381.63
2018-06-25T15:46:45.536Z,101384.45
2018-06-25T15:49:14.862Z,101383.03
2018-06-25T15:51:44.686Z,101379.09
2018-06-25T15:54:13.678Z,101373.63
2018-06-25T15:56:43.146Z,101373.17
2018-06-25T15:59:13.578Z,101372.30
2018-06-25T16:01:41.950Z,101377.27
2018-06-25T16:04:10.321Z,101372.98
2018-06-25T16:06:39.730Z,101368.11
2018-06-25T16:09:08.072Z,101362.73
2018-06-25T16:11:36.540Z,101363.56
2018-06-25T16:14:06.001Z,101365.20
2018-06-25T16:16:34.337Z,101381.91
2018-06-25T16:19:02.751Z,101373.88
2018-06-25T16:21:31.098Z,101380.92
2018-06-25T16:23:59.434Z,101380.16
2018-06-25T16:26:28.647Z,101377.66
2018-06-25T16:28:56.986Z,101384.21
2018-06-25T16:31:25.309Z,101384.89
2018-06-25T16:33:53.798Z,101389.21
2018-06-25T16:36:22.170Z,101394.22
2018-06-25T16:38:50.517Z,101386.20
2018-06-25T16:41:18.874Z,101391.34
2018-06-25T16:43:47.252Z,101394.34
2018-06-25T16:46:15.721Z,101402.47
2018-06-25T16:48:45.157Z,101400.33
2018-06-25T16:51:14.696Z,101398.88
2018-06-25T16:53:43.774Z,101399.05
2018-06-25T16:56:13.248Z,101393.55
2018-06-25T16:58:41.605Z,101395.81
2018-06-25T17:01:09.949Z,101400.16
2018-06-25T17:03:38.313Z,101391.51
2018-06-25T17:06:06.688Z,101391.02
2018-06-25T17:08:35.017Z,101389.85
2018-06-25T17:11:03.393Z,101387.17
2018-06-25T17:13:31.721Z,101394.14
2018-06-25T17:16:00.090Z,101382.19
2018-06-25T17:18:28.417Z,101387.17
2018-06-25T17:20:56.746Z,101385.52
2018-06-25T17:23:25.081Z,101388.84
2018-06-25T17:25:53.417Z,101387.48
2018-06-25T17:28:21.769Z,101394.98
2018-06-25T17:30:50.142Z,101385.81
2018-06-25T17:33:18.465Z,101382.86
2018-06-25T17:35:46.806Z,101387.52
2018-06-25T17:38:15.329Z,101394.14
2018-06-25T17:40:44.802Z,101393.08
2018-06-25T17:43:13.953Z,101400.28
2018-06-25T17:45:43.546Z,101407.16
2018-06-25T17:48:13.043Z,101406.05
2018-06-25T17:50:42.134Z,101404.48
2018-06-25T17:53:12.844Z,101407.91
2018-06-25T17:55:41.188Z,101408.34
2018-06-25T17:58:09.542Z,101408.52
2018-06-25T18:00:37.943Z,101406.84
2018-06-25T18:03:07.266Z,101405.95
2018-06-25T18:05:36.625Z,101410.31
2018-06-25T18:08:04.973Z,101412.13
2018-06-25T18:10:33.342Z,101411.42
2018-06-25T18:13:02.561Z,101418.41
2018-06-25T18:15:31.953Z,101423.63
2018-06-25T18:18:01.273Z,101421.23
2018-06-25T18:20:30.522Z,101421.20
2018-06-25T18:22:59.895Z,101420.19
2018-06-25T18:25:29.414Z,101418.05
2018-06-25T18:27:57.757Z,101418.66
2018-06-25T18:30:26.243Z,101430.16
2018-06-25T18:32:54.602Z,101424.86
2018-06-25T18:35:23.108Z,101432.70
2018-06-25T18:37:51.462Z,101432.70
2018-06-25T18:40:20.786Z,101438.97
2018-06-25T18:42:50.059Z,101442.16
2018-06-25T18:45:19.424Z,101447.00
2018-06-25T18:47:48.652Z,101446.77
2018-06-25T18:50:18.007Z,101454.39
2018-06-25T18:52:55.249Z,101453.84
2018-06-25T18:55:26.035Z,101453.82
2018-06-25T18:57:55.409Z,101455.69
2018-06-25T19:00:24.817Z,101462.41
2018-06-25T19:02:53.367Z,101465.50
2018-06-25T19:05:21.710Z,101470.75
2018-06-25T19:07:50.505Z,101470.00
2018-06-25T19:10:18.825Z,101481.71
2018-06-25T19:12:47.185Z,101485.20
2018-06-25T19:15:15.589Z,101483.72
2018-06-25T19:17:44.987Z,101484.20
2018-06-25T19:20:14.461Z,101496.24
2018-06-25T19:22:43.621Z,101492.19
2018-06-25T19:25:13.950Z,101494.05
2018-06-25T19:27:44.602Z,101499.42
2018-06-25T19:30:13.966Z,101503.49
2018-06-25T19:32:43.717Z,101503.89
2018-06-25T19:35:13.997Z,101509.35
2018-06-25T19:37:44.397Z,101509.38
2018-06-25T19:40:12.790Z,101511.33
2018-06-25T19:42:41.168Z,101516.60
2018-06-25T19:45:09.515Z,101517.10
2018-06-25T19:47:37.869Z,101522.45
2018-06-25T19:50:06.450Z,101523.06
2018-06-25T19:52:34.785Z,101520.97
2018-06-25T19:55:03.135Z,101518.24
2018-06-25T19:57:31.463Z,101523.20
2018-06-25T20:00:00.810Z,101525.00
2018-06-25T20:02:30.028Z,101522.13
2018-06-25T20:04:59.302Z,101523.22
2018-06-25T20:07:28.523Z,101527.95
2018-06-25T20:09:56.896Z,101527.70
2018-06-25T20:12:25.501Z,101527.81
2018-06-25T20:14:54.927Z,101529.13
2018-06-25T20:17:24.150Z,101532.14
2018-06-25T20:19:53.425Z,101535.16
2018-06-25T20:22:22.805Z,101537.20
2018-06-25T20:24:51.093Z,101541.39
2018-06-25T20:27:20.271Z,101545.11
2018-06-25T20:29:49.668Z,101539.66
2018-06-25T20:32:17.997Z,101548.19
2018-06-25T20:34:46.323Z,101545.59
2018-06-25T20:37:15.765Z,101546.23
2018-06-25T20:39:45.210Z,101555.23
2018-06-25T20:42:14.848Z,101552.13
2018-06-25T20:44:45.293Z,101563.39
2018-06-25T20:47:15.750Z,101558.13
2018-06-25T20:49:45.125Z,101561.85
2018-06-25T20:52:14.571Z,101561.97
2018-06-25T20:54:43.905Z,101568.55
2018-06-25T20:57:14.360Z,101567.23
2018-06-25T20:59:42.732Z,101566.14
2018-06-25T21:02:16.204Z,101566.88
2018-06-25T21:04:46.290Z,101574.04
2018-06-25T21:07:16.998Z,101571.39
2018-06-25T21:09:45.453Z,101571.15
2018-06-25T21:12:15.224Z,101567.73
2018-06-25T21:14:45.953Z,101571.24
2018-06-25T21:17:15.285Z,101567.86
2018-06-25T21:19:45.537Z,101568.11
2018-06-25T21:22:14.609Z,101566.80
2018-06-25T21:24:45.046Z,101569.75
2018-06-25T21:27:15.326Z,101572.14
2018-06-25T21:29:44.804Z,101563.49
2018-06-25T21:32:13.974Z,101565.16
2018-06-25T21:34:44.009Z,101566.25
2018-06-25T21:37:13.576Z,101573.39
2018-06-25T21:39:44.142Z,101581.63
2018-06-25T21:42:14.552Z,101584.09
2018-06-25T21:44:44.922Z,101583.11
2018-06-25T21:47:15.185Z,101580.81
2018-06-25T21:49:45.717Z,101578.40
2018-06-25T21:52:14.751Z,101577.43
2018-06-25T21:54:44.221Z,101572.77
2018-06-25T21:58:15.833Z,101579.58
2018-06-25T22:00:51.188Z,101582.27
2018-06-25T22:03:19.681Z,101582.48
2018-06-25T22:05:49.567Z,101588.12
2018-06-25T22:08:17.969Z,101589.52
2018-06-25T22:10:47.345Z,101583.86
2018-06-25T22:13:16.712Z,101582.03
2018-06-25T22:15:45.645Z,101591.05
2018-06-25T22:18:15.373Z,101589.55
2018-06-25T22:20:46.078Z,101592.52
2018-06-25T22:23:15.642Z,101590.67
2018-06-25T22:25:44.909Z,101591.05
2018-06-25T22:28:14.982Z,101591.17
2018-06-25T22:30:44.631Z,101594.72
2018-06-25T22:33:13.962Z,101598.31
2018-06-25T22:35:43.525Z,101599.77
2018-06-25T22:38:13.984Z,101600.14
2018-06-25T22:40:44.673Z,101595.70
2018-06-25T22:43:15.126Z,101590.00
2018-06-25T22:45:45.534Z,101591.97
2018-06-25T22:48:15.861Z,101584.34
2018-06-25T22:50:45.317Z,101599.66
2018-06-25T22:53:14.893Z,101594.66
2018-06-25T22:55:45.290Z,101584.36
2018-06-25T22:58:16.183Z,101585.93
2018-06-25T23:00:45.506Z,101588.94
2018-06-25T23:03:15.150Z,101590.00
2018-06-25T23:05:45.415Z,101596.90
2018-06-25T23:08:14.462Z,101603.68
2018-06-25T23:10:43.573Z,101603.16
2018-06-25T23:13:13.599Z,101607.69
2018-06-25T23:15:42.942Z,101598.75
2018-06-25T23:18:12.895Z,101604.86
2018-06-25T23:20:41.263Z,101605.12
2018-06-25T23:23:10.714Z,101608.68
2018-06-25T23:25:39.045Z,101598.41
2018-06-25T23:28:07.419Z,101597.77
2018-06-25T23:30:35.761Z,101602.03
2018-06-25T23:33:04.110Z,101610.11
2018-06-25T23:35:32.488Z,101605.84
2018-06-25T23:38:00.820Z,101606.84
2018-06-25T23:40:29.145Z,101605.52
2018-06-25T23:42:57.482Z,101611.83
2018-06-25T23:45:26.627Z,101606.69
2018-06-25T23:47:55.037Z,101616.47
2018-06-25T23:50:24.265Z,101621.98
2018-06-25T23:52:53.531Z,101619.45
2018-06-25T23:55:21.865Z,101619.83
2018-06-25T23:57:50.264Z,101622.72
